KCSV

Crossville Memorial-Whitson Field Airport

Crossville, Tennessee, USA
KCSV 211822Z 2118/2218 26009G17KT 6SM -SHRA SCT015 BKN035 TEMPO 2118/2120 VRB15G25KT 1 1/2SM SHRA BKN015 FM220000 29007KT 6SM BR SCT015 BKN035 FM220600 31006KT 4SM BR BKN015
Issued Valid From Valid To
Aug-21 @ 18:22 UTC
(5 hours ago)
Aug-21 @ 18:00 UTC
(6 hours ago)
Aug-22 @ 18:00 UTC
(in 18 hours)
Aug-21 @ 18:00 to Aug-22 @ 00:00
KCSV 211822Z 2118/2218 26009G17KT 6SM -SHRA SCT015 BKN035
Wind Visibility Clouds Conditions
260° at 9 knots
 Gusting to 17 knots
6 miles
  • Scattered at 1,500' AGL
  • Broken at 3,500' AGL
  • Light Rain
Expired Click to View Aug-21 @ 18:00 to Aug-21 @ 20:00
TEMPO 2118/2120 VRB15G25KT 1 1/2SM SHRA BKN015
Wind Visibility Clouds Conditions
Variable at 15 knots
 Gusting to 25 knots
1 1/2 miles
  • Broken at 1,500' AGL
  • Rain
From Aug-22 @ 00:00 to Aug-22 @ 06:00
FM220000 29007KT 6SM BR SCT015 BKN035
Wind Visibility Clouds Conditions
290° at 7 knots 6 miles
  • Scattered at 1,500' AGL
  • Broken at 3,500' AGL
  • Mist
From Aug-22 @ 06:00 to Aug-22 @ 18:00
FM220600 31006KT 4SM BR BKN015
Wind Visibility Clouds Conditions
310° at 6 knots 4 miles
  • Broken at 1,500' AGL
  • Mist
KCSV 211822Z 2118/2218 26009G17KT 6SM -SHRA SCT015 BKN035 TEMPO 2118/2120 VRB15G25KT 1 1/2SM SHRA BKN015 FM220000 29007KT 6SM BR SCT015 BKN035 FM220600 31006KT 4SM BR BKN015
Issued Aug-21 @ 18:22 UTC
(5 hours ago)
Valid From Aug-21 @ 18:00 UTC
(6 hours ago)
Valid To Aug-22 @ 18:00 UTC
(in 18 hours)
Aug-21 @ 18:00 - Aug-22 @ 00:00
Wind Visibility
260° at 9 knots
 Gusting to 17 knots
6 miles
Clouds
  • Scattered at 1,500' AGL
  • Broken at 3,500' AGL
Conditions
  • Light Rain
Aug-21 @ 18:00 - Aug-21 @ 20:00
Wind Visibility
Variable at 15 knots
 Gusting to 25 knots
1 1/2 miles
Clouds
  • Broken at 1,500' AGL
Conditions
  • Rain
From Aug-22 @ 00:00 - Aug-22 @ 06:00
Wind Visibility
290° at 7 knots 6 miles
Clouds
  • Scattered at 1,500' AGL
  • Broken at 3,500' AGL
Conditions
  • Mist
From Aug-22 @ 06:00 - Aug-22 @ 18:00
Wind Visibility
310° at 6 knots 4 miles
Clouds
  • Broken at 1,500' AGL
Conditions
  • Mist